createdAt,value
2022-10-18T00:02:19.417Z,29.95
2022-10-18T00:04:46.530Z,31.40
2022-10-18T00:07:13.078Z,36.03
2022-10-18T00:09:39.716Z,31.17
2022-10-18T00:12:06.214Z,32.45
2022-10-18T00:14:32.860Z,27.77
2022-10-18T00:16:59.447Z,36.40
2022-10-18T00:19:28.594Z,34.58
2022-10-18T00:21:55.903Z,28.33
2022-10-18T00:24:22.417Z,31.27
2022-10-18T00:26:48.876Z,37.88
2022-10-18T00:29:16.239Z,39.92
2022-10-18T00:31:43.829Z,42.55
2022-10-18T00:34:13.959Z,40.60
2022-10-18T00:36:41.130Z,37.72
2022-10-18T00:39:09.451Z,42.78
2022-10-18T00:41:37.058Z,39.65
2022-10-18T00:44:26.654Z,35.63
2022-10-18T00:47:00.392Z,35.10
2022-10-18T00:49:39.642Z,46.03
2022-10-18T00:52:16.847Z,44.25
2022-10-18T00:54:45.206Z,43.47
2022-10-18T00:57:13.015Z,42.38
2022-10-18T00:59:40.216Z,50.97
2022-10-18T01:02:07.979Z,48.95
2022-10-18T01:04:35.473Z,48.85
2022-10-18T01:07:04.607Z,50.38
2022-10-18T01:09:34.069Z,50.63
2022-10-18T01:12:15.505Z,58.30
2022-10-18T01:14:50.454Z,50.65
2022-10-18T01:17:30.434Z,50.92
2022-10-18T01:20:34.784Z,45.08
2022-10-18T01:23:27.174Z,48.72
2022-10-18T01:26:10.415Z,53.45
2022-10-18T01:29:14.144Z,57.38
2022-10-18T01:31:50.397Z,50.00
2022-10-18T01:34:19.940Z,56.45
2022-10-18T01:36:50.677Z,53.53
2022-10-18T01:39:23.337Z,56.80
2022-10-18T01:41:52.609Z,54.65
2022-10-18T01:44:23.759Z,66.07
2022-10-18T01:46:54.228Z,54.13
2022-10-18T01:49:21.172Z,58.10
2022-10-18T01:51:47.722Z,64.32
2022-10-18T01:54:20.206Z,52.53
2022-10-18T01:57:01.272Z,62.80
2022-10-18T01:59:52.874Z,55.03
2022-10-18T02:02:51.475Z,67.20
2022-10-18T02:05:46.407Z,68.22
2022-10-18T02:08:26.060Z,68.30
2022-10-18T02:11:06.941Z,57.17
2022-10-18T02:13:44.828Z,64.68
2022-10-18T02:16:16.708Z,56.30
2022-10-18T02:18:53.431Z,61.95
2022-10-18T02:21:21.471Z,49.33
2022-10-18T02:23:48.982Z,53.10
2022-10-18T02:26:16.044Z,42.22
2022-10-18T02:28:43.027Z,41.33
2022-10-18T02:31:34.820Z,41.92
2022-10-18T02:34:17.373Z,31.05
2022-10-18T02:36:51.424Z,29.75
2022-10-18T02:39:22.851Z,25.50
2022-10-18T02:41:49.401Z,29.95
2022-10-18T02:44:15.893Z,30.58
2022-10-18T02:46:42.793Z,26.48
2022-10-18T02:49:09.208Z,27.05
2022-10-18T02:51:35.668Z,25.60
2022-10-18T02:54:02.177Z,19.52
2022-10-18T02:56:28.643Z,24.38
2022-10-18T02:58:55.129Z,23.73
2022-10-18T03:01:21.780Z,26.98
2022-10-18T03:03:48.555Z,23.42
2022-10-18T03:06:15.120Z,24.63
2022-10-18T03:08:41.681Z,25.27
2022-10-18T03:11:08.169Z,21.65
2022-10-18T03:13:34.659Z,25.70
2022-10-18T03:16:01.552Z,23.77
2022-10-18T03:18:28.134Z,19.08
2022-10-18T03:20:54.627Z,22.75
2022-10-18T03:23:21.477Z,27.20
2022-10-18T03:25:48.032Z,26.08
2022-10-18T03:28:14.497Z,29.92
2022-10-18T03:30:41.087Z,25.10
2022-10-18T03:33:07.932Z,27.15
2022-10-18T03:35:34.419Z,22.98
2022-10-18T03:38:01.152Z,27.95
2022-10-18T03:40:27.654Z,22.40
2022-10-18T03:42:54.140Z,25.20
2022-10-18T03:45:20.707Z,25.27
2022-10-18T03:47:47.193Z,27.25
2022-10-18T03:50:13.723Z,24.13
2022-10-18T03:52:40.260Z,26.30
2022-10-18T03:55:07.252Z,22.90
2022-10-18T03:57:33.742Z,23.13
2022-10-18T04:00:00.285Z,29.52
2022-10-18T04:02:26.906Z,23.42
2022-10-18T04:04:53.378Z,22.23
2022-10-18T04:07:19.948Z,24.52
2022-10-18T04:09:46.422Z,22.05
2022-10-18T04:12:12.900Z,24.02
2022-10-18T04:14:39.447Z,28.00
2022-10-18T04:17:06.321Z,28.60
2022-10-18T04:19:32.787Z,27.25
2022-10-18T04:21:59.352Z,27.27
2022-10-18T04:24:25.807Z,30.05
2022-10-18T04:26:52.271Z,23.60
2022-10-18T04:29:18.810Z,27.38
2022-10-18T04:31:46.113Z,25.80
2022-10-18T04:34:13.328Z,24.27
2022-10-18T04:36:39.899Z,26.05
2022-10-18T04:39:06.384Z,26.48
2022-10-18T04:41:32.879Z,29.70
2022-10-18T04:43:59.472Z,27.13
2022-10-18T04:46:25.954Z,29.08
2022-10-18T04:48:52.399Z,26.15
2022-10-18T04:51:18.985Z,26.00
2022-10-18T04:53:45.465Z,24.35
2022-10-18T04:56:12.130Z,24.08
2022-10-18T04:58:38.679Z,17.42
2022-10-18T05:01:06.512Z,30.83
2022-10-18T05:03:33.210Z,27.90
2022-10-18T05:06:02.553Z,20.70
2022-10-18T05:08:31.296Z,24.95
2022-10-18T05:10:58.011Z,26.10
2022-10-18T05:13:24.689Z,27.48
2022-10-18T05:15:51.252Z,24.33
2022-10-18T05:18:17.994Z,30.17
2022-10-18T05:20:44.585Z,28.35
2022-10-18T05:23:11.070Z,32.83
2022-10-18T05:25:42.135Z,28.17
2022-10-18T05:28:34.700Z,26.00
2022-10-18T05:30:56.056Z,27.70
2022-10-18T05:33:22.767Z,26.83
2022-10-18T05:35:49.260Z,22.55
2022-10-18T05:38:15.726Z,20.33
2022-10-18T05:40:42.330Z,23.20
2022-10-18T05:43:08.774Z,25.60
2022-10-18T05:45:35.266Z,24.42
2022-10-18T05:48:01.775Z,23.65
2022-10-18T05:50:28.980Z,18.83
2022-10-18T05:53:06.914Z,21.75
2022-10-18T05:55:39.402Z,20.23
2022-10-18T05:58:05.954Z,19.58
2022-10-18T06:00:32.479Z,20.70
2022-10-18T06:03:00.382Z,22.52
2022-10-18T06:05:27.640Z,21.95
2022-10-18T06:07:54.128Z,15.55
2022-10-18T06:10:20.699Z,21.17
2022-10-18T06:12:47.252Z,23.75
2022-10-18T06:15:13.974Z,19.40
2022-10-18T06:17:40.633Z,15.93
2022-10-18T06:20:07.625Z,22.63
2022-10-18T06:22:34.239Z,18.75
2022-10-18T06:25:00.761Z,19.52
2022-10-18T06:27:27.243Z,19.02
2022-10-18T06:29:53.730Z,22.33
2022-10-18T06:32:20.260Z,25.13
2022-10-18T06:34:46.880Z,19.95
2022-10-18T06:37:13.323Z,21.83
2022-10-18T06:39:39.863Z,21.95
2022-10-18T06:42:06.332Z,20.00
2022-10-18T06:44:32.791Z,23.80
2022-10-18T06:46:59.399Z,22.27
2022-10-18T06:49:25.855Z,18.48
2022-10-18T06:51:53.802Z,22.00
2022-10-18T06:54:20.405Z,24.90
2022-10-18T06:56:46.852Z,20.73
2022-10-18T06:59:13.753Z,22.83
2022-10-18T07:01:40.369Z,22.92
2022-10-18T07:04:06.890Z,25.17
2022-10-18T07:06:33.373Z,23.70
2022-10-18T07:08:59.925Z,22.05
2022-10-18T07:11:27.120Z,24.77
2022-10-18T07:13:58.529Z,23.52
2022-10-18T07:16:25.122Z,23.83
2022-10-18T07:18:51.692Z,42.40
2022-10-18T07:21:20.466Z,26.02
2022-10-18T07:23:48.206Z,24.02
2022-10-18T07:26:31.895Z,25.20
2022-10-18T07:29:09.513Z,14.48
2022-10-18T07:31:37.295Z,27.73
2022-10-18T07:34:05.340Z,23.30
2022-10-18T07:36:32.234Z,34.30
2022-10-18T07:38:59.546Z,25.42
2022-10-18T07:41:26.213Z,27.13
2022-10-18T07:43:54.220Z,34.35
2022-10-18T07:46:22.064Z,28.48
2022-10-18T07:48:49.160Z,33.08
2022-10-18T07:51:15.898Z,42.65
2022-10-18T07:53:42.418Z,36.90
2022-10-18T07:56:12.541Z,52.45
2022-10-18T07:58:39.128Z,51.17
2022-10-18T08:01:07.840Z,35.65
2022-10-18T08:03:35.504Z,46.10
2022-10-18T08:06:02.984Z,41.40
2022-10-18T08:08:29.877Z,43.83
2022-10-18T08:11:02.847Z,52.10
2022-10-18T08:13:29.935Z,56.55
2022-10-18T08:16:05.373Z,37.08
2022-10-18T08:18:32.029Z,35.55
2022-10-18T08:21:03.253Z,28.30
2022-10-18T08:23:30.279Z,49.88
2022-10-18T08:25:57.150Z,56.05
2022-10-18T08:28:23.692Z,47.70
2022-10-18T08:30:50.261Z,42.25
2022-10-18T08:33:16.789Z,52.88
2022-10-18T08:35:43.289Z,54.67
2022-10-18T08:38:09.772Z,47.22
2022-10-18T08:40:36.917Z,50.63
2022-10-18T08:43:06.891Z,53.67
2022-10-18T08:45:42.397Z,50.10
2022-10-18T08:48:36.892Z,47.78
2022-10-18T08:51:07.150Z,47.10
2022-10-18T08:54:06.084Z,46.63
2022-10-18T08:56:34.547Z,45.50
2022-10-18T08:59:02.812Z,42.00
2022-10-18T09:04:36.668Z,46.55
2022-10-18T09:07:16.636Z,44.83
2022-10-18T09:09:55.114Z,36.10
2022-10-18T09:12:41.069Z,31.60
2022-10-18T09:15:32.420Z,36.47
2022-10-18T09:18:22.875Z,30.98
2022-10-18T09:20:56.752Z,39.40
2022-10-18T09:23:47.843Z,38.00
2022-10-18T09:26:20.321Z,40.83
2022-10-18T09:28:55.797Z,42.20
2022-10-18T09:31:33.729Z,38.90
2022-10-18T09:34:11.621Z,31.30
2022-10-18T09:36:39.314Z,35.88
2022-10-18T09:39:12.342Z,34.53
2022-10-18T09:41:53.348Z,36.93
2022-10-18T09:44:35.971Z,29.27
2022-10-18T09:47:24.365Z,35.97
2022-10-18T09:50:06.137Z,34.55
2022-10-18T09:52:39.058Z,32.50
2022-10-18T09:55:24.103Z,33.60
2022-10-18T09:57:59.719Z,31.40
2022-10-18T10:00:32.408Z,29.38
2022-10-18T10:03:01.213Z,32.00
2022-10-18T10:05:27.904Z,30.50
2022-10-18T10:07:59.418Z,20.67
2022-10-18T10:10:28.839Z,26.52
2022-10-18T10:13:06.110Z,28.33
2022-10-18T10:15:37.169Z,29.17
2022-10-18T10:18:21.396Z,29.15
2022-10-18T10:20:52.325Z,29.70
2022-10-18T10:23:26.401Z,28.63
2022-10-18T10:25:56.267Z,28.00
2022-10-18T10:28:36.869Z,29.52
2022-10-18T10:31:25.134Z,26.85
2022-10-18T10:34:15.321Z,25.83
2022-10-18T10:36:50.573Z,26.90
2022-10-18T10:39:18.701Z,22.92
2022-10-18T10:41:53.273Z,24.02
2022-10-18T10:44:25.854Z,24.05
2022-10-18T10:46:54.051Z,22.37
2022-10-18T10:49:46.228Z,23.33
2022-10-18T10:52:28.003Z,25.08
2022-10-18T10:55:05.716Z,20.05
2022-10-18T10:57:38.447Z,23.52
2022-10-18T11:00:06.098Z,14.47
2022-10-18T11:02:35.254Z,15.15
2022-10-18T11:05:24.005Z,21.45
2022-10-18T11:07:55.225Z,22.02
2022-10-18T11:10:29.319Z,21.38
2022-10-18T11:13:13.343Z,21.70
2022-10-18T11:15:46.449Z,22.10
2022-10-18T11:18:28.131Z,18.92
2022-10-18T11:21:22.031Z,22.08
2022-10-18T11:23:48.910Z,19.80
2022-10-18T11:26:40.895Z,23.73
2022-10-18T11:29:21.080Z,23.38
2022-10-18T11:32:06.617Z,24.15
2022-10-18T11:34:56.486Z,23.38
2022-10-18T11:37:39.352Z,21.13
2022-10-18T11:40:30.310Z,27.57
2022-10-18T11:43:57.478Z,25.35
2022-10-18T11:46:56.596Z,25.73
2022-10-18T11:49:41.413Z,24.65
2022-10-18T11:52:33.863Z,24.10
2022-10-18T11:55:28.941Z,24.40
2022-10-18T11:58:07.575Z,22.40
2022-10-18T12:00:43.248Z,19.83
2022-10-18T12:03:38.788Z,25.30
2022-10-18T12:06:14.298Z,22.30
2022-10-18T12:08:47.988Z,21.60
2022-10-18T12:11:30.319Z,18.92
2022-10-18T12:14:00.825Z,25.58
2022-10-18T12:16:51.069Z,21.42
2022-10-18T12:19:27.634Z,23.83
2022-10-18T12:21:58.139Z,19.17
2022-10-18T12:24:30.237Z,19.83
2022-10-18T12:27:01.459Z,17.30
2022-10-18T12:29:50.512Z,19.08
2022-10-18T12:32:31.030Z,22.17
2022-10-18T12:35:02.222Z,19.17
2022-10-18T12:38:00.952Z,17.65
2022-10-18T12:40:54.656Z,21.08
2022-10-18T12:43:29.723Z,21.25
2022-10-18T12:45:59.342Z,21.88
2022-10-18T12:48:37.675Z,26.50
2022-10-18T12:51:13.299Z,20.63
2022-10-18T12:53:40.818Z,20.75
2022-10-18T12:56:29.090Z,23.02
2022-10-18T12:59:38.943Z,25.70
2022-10-18T13:02:05.369Z,19.23
2022-10-18T13:04:31.781Z,13.32
2022-10-18T13:06:58.244Z,20.95
2022-10-18T13:09:31.709Z,22.40
2022-10-18T13:12:10.518Z,19.70
2022-10-18T13:15:05.754Z,21.43
2022-10-18T13:17:47.596Z,20.33
2022-10-18T13:20:32.538Z,18.63
2022-10-18T13:23:41.582Z,18.77
2022-10-18T13:26:43.482Z,19.00
2022-10-18T13:29:21.884Z,19.77
2022-10-18T13:32:10.721Z,15.85
2022-10-18T13:34:37.368Z,18.95
2022-10-18T13:37:05.523Z,19.15
2022-10-18T13:39:33.000Z,22.35
2022-10-18T13:41:59.465Z,20.70
2022-10-18T13:44:28.503Z,20.70
2022-10-18T13:46:54.948Z,20.60
2022-10-18T13:49:24.206Z,20.42
2022-10-18T13:52:24.683Z,21.85
2022-10-18T13:55:06.198Z,20.33
2022-10-18T13:58:06.146Z,24.15
2022-10-18T14:00:35.344Z,17.98
2022-10-18T14:03:02.129Z,21.98
2022-10-18T14:05:49.628Z,16.35
2022-10-18T14:08:21.996Z,20.13
2022-10-18T14:11:06.014Z,18.10
2022-10-18T14:13:42.583Z,18.45
2022-10-18T14:16:29.703Z,16.08
2022-10-18T14:19:05.158Z,17.52
2022-10-18T14:21:37.718Z,19.83
2022-10-18T14:24:15.981Z,16.48
2022-10-18T14:26:42.506Z,17.63
2022-10-18T14:29:18.222Z,19.67
2022-10-18T14:31:53.963Z,16.10
2022-10-18T14:34:21.113Z,17.37
2022-10-18T14:36:49.509Z,16.92
2022-10-18T14:39:26.399Z,18.80
2022-10-18T14:41:55.669Z,19.88
2022-10-18T14:44:30.238Z,17.73
2022-10-18T14:47:02.584Z,21.43
2022-10-18T14:49:30.448Z,21.75
2022-10-18T14:51:59.268Z,21.02
2022-10-18T14:54:32.143Z,19.80
2022-10-18T14:57:00.931Z,20.55
2022-10-18T14:59:30.685Z,17.10
2022-10-18T15:02:03.549Z,19.88
2022-10-18T15:04:30.048Z,15.70
2022-10-18T15:06:57.572Z,20.60
2022-10-18T15:09:24.690Z,21.38
2022-10-18T15:11:51.952Z,19.47
2022-10-18T15:14:20.317Z,18.27
2022-10-18T15:16:48.880Z,17.75
2022-10-18T15:19:15.314Z,15.73
2022-10-18T15:22:30.234Z,16.83
2022-10-18T15:25:06.099Z,17.23
2022-10-18T15:27:37.721Z,17.27
2022-10-18T15:30:40.952Z,20.63
2022-10-18T15:33:08.883Z,18.23
2022-10-18T15:35:37.279Z,19.10
2022-10-18T15:38:25.031Z,18.30
2022-10-18T15:40:52.068Z,15.57
2022-10-18T15:43:24.451Z,16.08
2022-10-18T15:46:03.222Z,20.10
2022-10-18T15:48:39.994Z,19.83
2022-10-18T15:51:28.000Z,18.40
2022-10-18T15:53:54.719Z,18.75
2022-10-18T15:56:35.389Z,16.42
2022-10-18T15:59:05.107Z,17.52
2022-10-18T16:01:43.829Z,17.33
2022-10-18T16:04:27.159Z,17.27
2022-10-18T16:06:55.184Z,16.50
2022-10-18T16:09:23.477Z,16.35
2022-10-18T16:11:55.594Z,20.98
2022-10-18T16:14:23.101Z,16.85
2022-10-18T16:16:55.860Z,16.97
2022-10-18T16:19:22.481Z,14.30
2022-10-18T16:21:49.804Z,18.58
2022-10-18T16:24:16.726Z,18.13
2022-10-18T16:26:43.225Z,17.60
2022-10-18T16:29:35.839Z,17.80
2022-10-18T16:32:02.554Z,25.05
2022-10-18T16:34:29.265Z,16.60
2022-10-18T16:36:55.950Z,16.98
2022-10-18T16:39:23.386Z,19.38
2022-10-18T16:41:49.893Z,15.73
2022-10-18T16:44:16.785Z,17.83
2022-10-18T16:46:43.611Z,17.95
2022-10-18T16:49:22.066Z,16.27
2022-10-18T16:51:48.535Z,17.67
2022-10-18T16:54:15.074Z,17.70
2022-10-18T16:56:41.680Z,15.68
2022-10-18T16:59:34.262Z,14.73
2022-10-18T17:02:00.821Z,18.10
2022-10-18T17:04:27.368Z,17.20
2022-10-18T17:06:57.223Z,18.27
2022-10-18T17:09:23.750Z,20.58
2022-10-18T17:11:50.261Z,18.13
2022-10-18T17:14:16.764Z,16.77
2022-10-18T17:16:45.417Z,20.27
2022-10-18T17:19:14.794Z,19.30
2022-10-18T17:21:41.307Z,20.05
2022-10-18T17:24:07.876Z,15.90
2022-10-18T17:26:34.461Z,19.88
2022-10-18T17:29:04.672Z,23.00
2022-10-18T17:31:32.164Z,21.33
2022-10-18T17:33:58.839Z,18.20
2022-10-18T17:36:25.795Z,21.33
2022-10-18T17:38:55.740Z,19.00
2022-10-18T17:41:22.310Z,21.77
2022-10-18T17:43:49.046Z,18.80
2022-10-18T17:46:16.087Z,15.65
2022-10-18T17:48:42.848Z,15.88
2022-10-18T17:51:14.799Z,15.52
2022-10-18T17:53:41.551Z,17.92
2022-10-18T17:56:08.330Z,15.90
2022-10-18T17:58:35.194Z,17.30
2022-10-18T18:01:19.252Z,17.35
2022-10-18T18:03:46.017Z,17.75
2022-10-18T18:06:21.594Z,15.73
2022-10-18T18:08:49.400Z,21.47
2022-10-18T18:11:16.863Z,16.30
2022-10-18T18:13:43.461Z,16.02
2022-10-18T18:16:24.987Z,18.83
2022-10-18T18:18:53.810Z,18.58
2022-10-18T18:21:21.283Z,20.57
2022-10-18T18:23:48.722Z,16.85
2022-10-18T18:26:15.585Z,18.17
2022-10-18T18:28:42.536Z,16.75
2022-10-18T18:31:11.344Z,18.70
2022-10-18T18:33:38.273Z,17.07
2022-10-18T18:36:05.721Z,18.52
2022-10-18T18:38:33.396Z,25.33
2022-10-18T18:41:20.567Z,19.10
2022-10-18T18:43:54.943Z,18.95
2022-10-18T18:46:22.305Z,17.77
2022-10-18T18:48:49.352Z,16.52
2022-10-18T18:51:18.520Z,15.85
2022-10-18T18:53:46.252Z,17.42
2022-10-18T18:56:18.668Z,16.70
2022-10-18T18:58:46.572Z,14.60
2022-10-18T19:01:22.544Z,19.48
2022-10-18T19:03:53.030Z,14.38
2022-10-18T19:06:40.916Z,17.50
2022-10-18T19:09:10.264Z,21.23
2022-10-18T19:11:38.073Z,20.17
2022-10-18T19:14:06.789Z,16.73
2022-10-18T19:16:38.819Z,17.67
2022-10-18T19:19:15.591Z,23.52
2022-10-18T19:21:44.853Z,34.30
2022-10-18T19:24:11.929Z,18.50
2022-10-18T19:26:42.926Z,21.83
2022-10-18T19:29:13.172Z,19.08
2022-10-18T19:31:40.879Z,14.88
2022-10-18T19:34:09.926Z,14.40
2022-10-18T19:36:37.148Z,16.73
2022-10-18T19:39:05.090Z,13.85
2022-10-18T19:41:31.696Z,13.48
2022-10-18T19:43:58.172Z,9.55
2022-10-18T19:46:25.121Z,10.50
2022-10-18T19:48:51.712Z,11.03
2022-10-18T19:51:21.898Z,8.90
2022-10-18T19:53:50.565Z,7.28
2022-10-18T19:56:20.101Z,8.15
2022-10-18T19:58:47.410Z,6.30
2022-10-18T20:01:14.749Z,5.87
2022-10-18T20:03:41.500Z,5.43
2022-10-18T20:06:08.845Z,9.32
2022-10-18T20:08:36.794Z,4.32
2022-10-18T20:11:09.454Z,5.28
2022-10-18T20:13:36.097Z,5.73
2022-10-18T20:16:04.100Z,5.05
2022-10-18T20:18:31.144Z,4.25
2022-10-18T20:20:57.623Z,4.65
2022-10-18T20:23:24.206Z,5.00
2022-10-18T20:26:02.262Z,20.43
2022-10-18T20:28:29.559Z,6.47
2022-10-18T20:31:07.571Z,4.60
2022-10-18T20:33:35.571Z,5.15
2022-10-18T20:36:22.315Z,4.78
2022-10-18T20:38:49.293Z,5.00
2022-10-18T20:41:21.891Z,3.90
2022-10-18T20:43:55.861Z,4.18
2022-10-18T20:46:22.938Z,4.22
2022-10-18T20:48:50.948Z,4.70
2022-10-18T20:51:18.465Z,5.67
2022-10-18T20:53:45.497Z,3.90
2022-10-18T20:56:17.952Z,3.55
2022-10-18T20:58:45.329Z,8.13
2022-10-18T21:01:15.224Z,3.88
2022-10-18T21:03:44.406Z,4.20
2022-10-18T21:06:19.457Z,4.30
2022-10-18T21:08:46.358Z,3.45
2022-10-18T21:11:14.043Z,4.43
2022-10-18T21:13:40.577Z,3.83
2022-10-18T21:16:07.612Z,3.47
2022-10-18T21:18:36.208Z,3.80
2022-10-18T21:21:14.669Z,4.50
2022-10-18T21:23:41.330Z,4.53
2022-10-18T21:26:08.646Z,8.40
2022-10-18T21:28:35.257Z,3.50
2022-10-18T21:31:14.204Z,5.28
2022-10-18T21:33:41.856Z,4.97
2022-10-18T21:36:08.731Z,5.07
2022-10-18T21:38:35.324Z,3.90
2022-10-18T21:41:07.134Z,4.33
2022-10-18T21:43:33.603Z,4.20
2022-10-18T21:46:00.866Z,6.20
2022-10-18T21:48:28.014Z,3.38
2022-10-18T21:50:54.925Z,5.30
2022-10-18T21:53:21.847Z,4.37
2022-10-18T21:55:48.343Z,4.25
2022-10-18T21:58:15.035Z,4.60
2022-10-18T22:00:41.610Z,4.40
2022-10-18T22:03:12.483Z,5.90
2022-10-18T22:05:39.588Z,4.17
2022-10-18T22:08:07.056Z,4.65
2022-10-18T22:10:34.062Z,3.90
2022-10-18T22:13:00.537Z,5.50
2022-10-18T22:15:27.074Z,5.15
2022-10-18T22:17:53.640Z,4.60
2022-10-18T22:20:20.116Z,5.57
2022-10-18T22:22:46.637Z,6.50
2022-10-18T22:25:13.214Z,5.35
2022-10-18T22:27:39.694Z,6.70
2022-10-18T22:30:06.449Z,10.30
2022-10-18T22:32:33.151Z,7.03
2022-10-18T22:34:59.616Z,5.20
2022-10-18T22:37:26.092Z,6.45
2022-10-18T22:39:52.599Z,7.70
2022-10-18T22:42:19.059Z,6.27
2022-10-18T22:44:45.524Z,6.43
2022-10-18T22:47:12.116Z,5.72
2022-10-18T22:49:38.578Z,5.03
2022-10-18T22:52:05.227Z,6.28
2022-10-18T22:54:31.763Z,6.13
2022-10-18T22:56:58.220Z,5.95
2022-10-18T22:59:24.687Z,5.80
2022-10-18T23:01:51.323Z,5.70
2022-10-18T23:04:17.805Z,6.30
2022-10-18T23:06:44.264Z,6.97
2022-10-18T23:09:11.356Z,4.63
2022-10-18T23:11:38.300Z,6.47
2022-10-18T23:14:06.393Z,7.70
2022-10-18T23:16:33.066Z,5.05
2022-10-18T23:18:59.745Z,5.63
2022-10-18T23:21:27.650Z,5.93
2022-10-18T23:23:55.187Z,5.75
2022-10-18T23:26:24.360Z,5.55
2022-10-18T23:28:52.417Z,5.95
2022-10-18T23:31:25.128Z,6.07
2022-10-18T23:33:53.748Z,15.02
2022-10-18T23:36:21.662Z,9.60
2022-10-18T23:38:48.299Z,8.35
2022-10-18T23:41:16.304Z,5.68
2022-10-18T23:43:43.772Z,5.23
2022-10-18T23:46:11.222Z,4.57
2022-10-18T23:48:37.926Z,6.25
2022-10-18T23:51:05.218Z,5.15
2022-10-18T23:53:31.949Z,5.10
2022-10-18T23:56:00.920Z,4.60
2022-10-18T23:58:28.679Z,6.07
